Time;durP1;ratioP1;P1;durP2;ratioP2;P2;SDS_P1;SDS_P2;PMS_P1;PMS_P2;Temp;Humidity;BMP_temperature;BMP_pressure;BME280_temperature;BME280_humidity;BME280_pressure;Samples;Min_cycle;Max_cycle;Signal;HPM_P1;HPM_P2
2020/12/13 06:03:08;;;;;;;45.40;19.27;;;5.40;97.30;;;;;;4925676;23;20592;-72
2020/12/13 06:05:36;;;;;;;34.23;16.70;;;5.40;97.30;;;;;;4913150;29;20456;-72
2020/12/13 06:08:05;;;;;;;36.03;16.87;;;5.40;97.30;;;;;;4897320;29;20557;-71
2020/12/13 06:10:35;;;;;;;40.30;19.20;;;5.40;97.30;;;;;;4897234;29;20422;-71
2020/12/13 06:13:03;;;;;;;35.80;16.70;;;5.40;97.30;;;;;;4897151;29;20430;-71
2020/12/13 06:15:31;;;;;;;38.13;17.43;;;5.40;97.30;;;;;;4898664;29;20422;-69
2020/12/13 06:18:03;;;;;;;40.93;16.87;;;5.40;97.30;;;;;;4898287;29;20504;-69
2020/12/13 06:20:30;;;;;;;39.17;16.80;;;5.40;97.30;;;;;;4898477;29;20759;-69
2020/12/13 06:22:58;;;;;;;36.83;16.30;;;5.40;97.30;;;;;;4898296;29;20454;-69
2020/12/13 06:25:24;;;;;;;34.87;16.60;;;5.40;97.30;;;;;;4897086;29;20424;-69
2020/12/13 06:27:52;;;;;;;41.97;17.07;;;5.40;97.30;;;;;;4898033;29;20551;-69
2020/12/13 06:30:19;;;;;;;32.67;15.93;;;5.40;97.30;;;;;;4898374;29;20169;-69
2020/12/13 06:32:50;;;;;;;36.03;16.53;;;5.40;97.30;;;;;;4898285;29;20413;-69
2020/12/13 06:35:17;;;;;;;39.50;15.40;;;5.40;97.30;;;;;;4896856;29;20414;-69
2020/12/13 06:37:42;;;;;;;33.90;15.40;;;5.40;97.30;;;;;;4898196;29;20513;-69
2020/12/13 06:40:18;;;;;;;37.73;15.80;;;5.40;97.30;;;;;;4896934;29;20516;-69
2020/12/13 06:42:45;;;;;;;35.13;15.73;;;5.40;97.30;;;;;;4898412;29;20715;-69
2020/12/13 06:45:15;;;;;;;29.00;16.07;;;5.40;97.30;;;;;;4896620;29;20421;-69
2020/12/13 06:47:43;;;;;;;30.20;15.23;;;5.40;97.30;;;;;;4896963;29;20461;-69
2020/12/13 06:50:20;;;;;;;33.80;15.77;;;5.40;97.30;;;;;;4896564;29;20426;-70
2020/12/13 06:52:50;;;;;;;31.80;14.90;;;5.40;97.30;;;;;;4898287;29;20492;-70
2020/12/13 06:55:16;;;;;;;32.30;15.67;;;5.40;97.30;;;;;;4896404;29;20827;-71
2020/12/13 06:57:43;;;;;;;37.50;17.00;;;5.40;97.30;;;;;;4896808;29;20848;-70
2020/12/13 07:00:10;;;;;;;37.50;18.07;;;5.40;97.30;;;;;;4897501;29;20422;-70
2020/12/13 07:02:46;;;;;;;35.57;16.20;;;5.40;97.30;;;;;;4896189;29;20464;-70
2020/12/13 07:05:13;;;;;;;38.70;16.20;;;5.40;97.30;;;;;;4894700;29;20429;-70
2020/12/13 07:07:41;;;;;;;44.07;19.00;;;5.40;97.30;;;;;;4897535;29;20453;-70
2020/12/13 07:10:08;;;;;;;35.10;17.33;;;5.40;97.30;;;;;;4896254;29;20410;-70
2020/12/13 07:12:35;;;;;;;35.17;16.63;;;5.40;97.30;;;;;;4896242;29;20448;-70
2020/12/13 07:15:00;;;;;;;36.53;17.30;;;5.40;97.30;;;;;;4895920;29;20414;-71
2020/12/13 07:17:30;;;;;;;44.93;19.70;;;5.40;97.30;;;;;;4896267;29;20413;-71
2020/12/13 07:20:00;;;;;;;40.10;18.90;;;5.40;97.30;;;;;;4893819;29;20177;-71
2020/12/13 07:22:33;;;;;;;32.33;15.20;;;5.40;97.30;;;;;;4897456;29;20943;-71
2020/12/13 07:24:59;;;;;;;35.07;16.30;;;5.40;97.30;;;;;;4894112;29;20409;-71
2020/12/13 07:27:27;;;;;;;33.30;15.57;;;5.40;97.30;;;;;;4896144;29;20418;-71
2020/12/13 07:29:56;;;;;;;35.47;16.27;;;5.50;97.30;;;;;;4896043;29;20414;-71
2020/12/13 07:32:23;;;;;;;33.10;16.23;;;5.40;97.30;;;;;;4896051;29;20449;-71
2020/12/13 07:34:50;;;;;;;31.50;16.20;;;5.50;97.30;;;;;;4896922;29;20509;-71
2020/12/13 07:37:17;;;;;;;37.63;15.97;;;5.50;97.30;;;;;;4897705;29;20903;-71
2020/12/13 07:39:43;;;;;;;30.47;13.67;;;5.50;97.30;;;;;;4896045;29;20425;-71
2020/12/13 07:42:13;;;;;;;28.17;14.57;;;5.50;97.30;;;;;;4896082;29;20441;-70
2020/12/13 07:44:39;;;;;;;32.30;14.50;;;5.50;97.30;;;;;;4895823;29;20504;-71
2020/12/13 07:47:05;;;;;;;33.07;14.73;;;5.50;97.30;;;;;;4896192;29;20490;-71
2020/12/13 07:49:31;;;;;;;33.50;15.33;;;5.60;97.30;;;;;;4895940;29;20461;-71
2020/12/13 07:51:57;;;;;;;31.60;13.97;;;5.60;97.30;;;;;;4895846;29;20225;-71
2020/12/13 07:54:30;;;;;;;33.80;15.80;;;5.60;97.30;;;;;;4895813;29;20453;-71
2020/12/13 07:57:10;;;;;;;27.43;14.67;;;5.60;97.30;;;;;;4896253;29;20665;-70
2020/12/13 07:59:36;;;;;;;30.60;14.43;;;5.60;97.30;;;;;;4898078;29;20429;-71
2020/12/13 08:02:02;;;;;;;32.90;14.97;;;5.60;97.30;;;;;;4897578;29;20449;-71
2020/12/13 08:04:31;;;;;;;30.53;14.27;;;5.60;97.30;;;;;;4896576;29;20663;-71
2020/12/13 08:06:58;;;;;;;28.73;13.10;;;5.60;97.30;;;;;;4897979;29;20188;-71
2020/12/13 08:09:24;;;;;;;26.47;13.73;;;5.60;97.30;;;;;;4899077;29;20460;-71
2020/12/13 08:11:50;;;;;;;30.30;14.10;;;5.70;97.30;;;;;;4901074;29;20449;-72
2020/12/13 08:14:19;;;;;;;34.50;14.80;;;5.70;97.30;;;;;;4899460;29;20481;-71
2020/12/13 08:16:50;;;;;;;34.87;14.33;;;5.70;97.30;;;;;;4900387;29;20422;-71
2020/12/13 08:19:18;;;;;;;29.57;14.30;;;5.70;97.30;;;;;;4898877;29;20782;-71
2020/12/13 08:22:04;;;;;;;30.93;14.57;;;5.70;97.30;;;;;;4898941;29;20986;-71
2020/12/13 08:24:30;;;;;;;28.97;14.67;;;5.70;97.30;;;;;;4899044;29;20429;-71
2020/12/13 08:27:00;;;;;;;29.70;14.83;;;5.70;97.30;;;;;;4899160;29;20426;-71
2020/12/13 08:29:28;;;;;;;26.50;14.73;;;5.80;97.30;;;;;;4899061;29;20468;-71
2020/12/13 08:31:56;;;;;;;31.67;14.70;;;5.80;97.30;;;;;;4898852;29;20471;-71
2020/12/13 08:34:24;;;;;;;31.70;14.77;;;5.80;97.30;;;;;;4899739;29;20414;-71
2020/12/13 08:36:52;;;;;;;28.87;14.40;;;5.80;97.30;;;;;;4898769;29;20426;-71
2020/12/13 08:39:28;;;;;;;26.60;13.03;;;5.80;97.30;;;;;;4898813;29;20790;-71
2020/12/13 08:41:55;;;;;;;25.03;14.00;;;5.80;97.30;;;;;;4899067;29;20521;-71
2020/12/13 08:44:29;;;;;;;30.00;13.40;;;5.80;97.30;;;;;;4898573;29;20505;-71
2020/12/13 08:46:56;;;;;;;31.13;14.90;;;5.80;97.30;;;;;;4898643;29;20432;-71
2020/12/13 08:49:31;;;;;;;28.37;15.53;;;5.80;97.30;;;;;;4900288;29;20453;-71
2020/12/13 08:52:11;;;;;;;36.00;15.17;;;5.80;97.30;;;;;;4898520;29;20555;-71
2020/12/13 08:54:58;;;;;;;32.50;15.70;;;5.90;97.30;;;;;;4898497;29;20490;-71
2020/12/13 08:57:35;;;;;;;26.33;13.27;;;5.90;97.30;;;;;;4898645;29;20440;-71
2020/12/13 09:00:07;;;;;;;26.33;13.30;;;6.00;97.30;;;;;;4898481;29;20492;-72
2020/12/13 09:02:33;;;;;;;28.60;13.23;;;6.00;97.30;;;;;;4898385;29;20954;-71
2020/12/13 09:05:00;;;;;;;25.10;13.37;;;6.00;97.30;;;;;;4898603;29;20429;-71
2020/12/13 09:07:32;;;;;;;30.63;14.73;;;6.00;97.30;;;;;;4899709;29;20181;-71
2020/12/13 09:10:13;;;;;;;27.07;13.63;;;6.10;97.30;;;;;;4899514;29;20505;-71
2020/12/13 09:12:40;;;;;;;27.30;13.70;;;6.10;97.30;;;;;;4899775;29;20417;-71
2020/12/13 09:15:14;;;;;;;26.67;14.17;;;6.10;97.30;;;;;;4898164;29;20513;-71
2020/12/13 09:17:41;;;;;;;29.13;12.63;;;6.20;97.30;;;;;;4899611;29;20428;-71
2020/12/13 09:20:07;;;;;;;36.20;15.77;;;6.20;97.30;;;;;;4898036;29;20445;-71
2020/12/13 09:22:33;;;;;;;25.20;12.80;;;6.20;97.30;;;;;;4899549;29;20441;-70
2020/12/13 09:24:59;;;;;;;28.50;14.90;;;6.20;97.30;;;;;;4899222;29;20422;-71
2020/12/13 09:27:26;;;;;;;26.30;13.30;;;6.30;97.30;;;;;;4898194;29;20423;-71
2020/12/13 09:29:53;;;;;;;29.80;14.50;;;6.30;97.30;;;;;;4898126;29;20444;-72
2020/12/13 09:32:21;;;;;;;28.77;14.70;;;6.30;97.30;;;;;;4899387;29;20434;-71
2020/12/13 09:34:47;;;;;;;39.87;18.40;;;6.30;97.30;;;;;;4897677;29;20434;-71
2020/12/13 09:37:18;;;;;;;32.50;15.53;;;6.40;97.30;;;;;;4899491;29;20424;-71
2020/12/13 09:39:44;;;;;;;27.97;13.57;;;6.40;97.30;;;;;;4898202;29;20832;-70
2020/12/13 09:42:10;;;;;;;31.40;14.20;;;6.40;97.30;;;;;;4897949;29;20448;-71
2020/12/13 09:44:37;;;;;;;29.93;14.87;;;6.40;97.30;;;;;;4897814;29;20429;-71
2020/12/13 09:47:03;;;;;;;28.80;13.90;;;6.50;97.30;;;;;;4898066;29;20441;-71
2020/12/13 09:49:30;;;;;;;29.63;14.63;;;6.50;97.30;;;;;;4899106;29;20454;-71
2020/12/13 09:52:03;;;;;;;27.73;13.80;;;6.50;97.30;;;;;;4897449;29;20513;-71
2020/12/13 09:54:29;;;;;;;27.60;14.03;;;6.50;97.30;;;;;;4898878;29;20444;-71
2020/12/13 09:56:55;;;;;;;30.20;13.70;;;6.60;97.30;;;;;;4897835;29;20916;-73
2020/12/13 09:59:22;;;;;;;26.20;13.67;;;6.60;97.30;;;;;;4899083;29;20831;-71
2020/12/13 10:01:48;;;;;;;30.93;14.00;;;6.60;97.30;;;;;;4897489;29;20827;-71
2020/12/13 10:04:16;;;;;;;29.57;14.17;;;6.70;97.30;;;;;;4897595;29;20811;-71
2020/12/13 10:09:25;;;;;;;28.00;13.97;;;6.70;97.30;;;;;;4898866;29;20836;-72
2020/12/13 10:11:51;;;;;;;26.37;14.43;;;6.70;97.30;;;;;;4898908;29;20441;-72
2020/12/13 10:14:17;;;;;;;27.47;14.90;;;6.70;97.30;;;;;;4897265;29;20173;-71
2020/12/13 10:16:44;;;;;;;29.50;13.90;;;6.80;97.30;;;;;;4898750;29;20414;-71
2020/12/13 10:19:10;;;;;;;29.50;13.80;;;6.80;97.30;;;;;;4897541;29;20192;-71
2020/12/13 10:21:37;;;;;;;30.23;13.50;;;6.80;97.30;;;;;;4897409;29;20958;-72
2020/12/13 10:24:04;;;;;;;28.03;14.13;;;6.80;97.30;;;;;;4897266;29;20418;-71
2020/12/13 10:26:33;;;;;;;30.33;14.37;;;6.80;97.30;;;;;;4897308;29;20473;-71
2020/12/13 10:28:59;;;;;;;31.77;14.23;;;6.80;97.30;;;;;;4897448;29;20464;-72
2020/12/13 10:31:29;;;;;;;31.27;15.03;;;6.80;97.30;;;;;;4898058;29;20871;-71
2020/12/13 10:33:56;;;;;;;30.20;14.97;;;6.80;97.30;;;;;;4897355;29;20428;-71
2020/12/13 10:36:22;;;;;;;28.40;14.53;;;6.80;97.30;;;;;;4896995;29;20461;-72
2020/12/13 10:38:51;;;;;;;34.87;16.03;;;6.80;97.30;;;;;;4897187;29;20434;-71
2020/12/13 10:41:21;;;;;;;30.87;14.77;;;6.90;97.30;;;;;;4898275;29;20438;-71
2020/12/13 10:43:48;;;;;;;29.37;12.97;;;6.90;97.30;;;;;;4898485;29;20935;-71
2020/12/13 10:46:14;;;;;;;32.67;13.07;;;6.90;97.30;;;;;;4897182;29;20432;-71
2020/12/13 10:48:40;;;;;;;26.33;14.53;;;6.90;97.30;;;;;;4897144;29;20461;-70
2020/12/13 10:51:06;;;;;;;31.77;14.37;;;7.00;97.30;;;;;;4897963;29;21046;-71
2020/12/13 10:53:32;;;;;;;33.30;14.93;;;7.00;97.30;;;;;;4897956;29;20508;-71
2020/12/13 10:55:58;;;;;;;33.20;15.57;;;7.10;97.30;;;;;;4897940;29;20173;-71
2020/12/13 10:58:23;;;;;;;31.73;14.17;;;7.10;97.30;;;;;;4896857;29;20440;-71
2020/12/13 11:00:50;;;;;;;30.60;14.20;;;7.10;97.30;;;;;;4896510;29;20625;-72
2020/12/13 11:03:16;;;;;;;30.40;13.93;;;7.20;97.30;;;;;;4898070;29;20184;-71
2020/12/13 11:05:43;;;;;;;27.57;13.67;;;7.20;97.30;;;;;;4896847;29;20428;-71
2020/12/13 11:08:12;;;;;;;32.50;14.07;;;7.20;97.30;;;;;;4896855;29;20456;-71
2020/12/13 11:10:38;;;;;;;30.70;14.73;;;7.10;97.30;;;;;;4898320;29;20563;-71
2020/12/13 11:13:03;;;;;;;32.00;16.83;;;7.20;97.30;;;;;;4898027;29;21009;-71
2020/12/13 11:15:30;;;;;;;29.90;15.43;;;7.20;97.30;;;;;;4897050;29;20181;-71
2020/12/13 11:17:55;;;;;;;29.60;13.83;;;7.20;97.30;;;;;;4897868;29;20181;-71
2020/12/13 11:20:21;;;;;;;31.30;14.00;;;7.20;97.30;;;;;;4896783;29;20528;-71
2020/12/13 11:22:47;;;;;;;33.90;16.77;;;7.20;97.30;;;;;;4896672;29;20188;-71
2020/12/13 11:25:13;;;;;;;32.70;14.10;;;7.30;97.30;;;;;;4897669;29;20417;-71
2020/12/13 11:27:39;;;;;;;29.50;14.37;;;7.30;97.30;;;;;;4896508;29;20527;-71
2020/12/13 11:30:10;;;;;;;32.70;14.53;;;7.40;97.30;;;;;;4897857;29;20421;-71
2020/12/13 11:32:35;;;;;;;29.77;14.07;;;7.40;97.30;;;;;;4897750;29;20196;-70
2020/12/13 11:35:01;;;;;;;32.27;15.23;;;7.50;97.30;;;;;;4896310;29;20413;-70
2020/12/13 11:37:28;;;;;;;33.90;15.93;;;7.50;97.30;;;;;;4896444;29;20191;-72
2020/12/13 11:39:53;;;;;;;30.40;14.73;;;7.50;97.30;;;;;;4896437;29;20256;-71
2020/12/13 11:42:20;;;;;;;30.10;13.97;;;7.50;97.30;;;;;;4897580;29;20441;-71
2020/12/13 11:44:46;;;;;;;27.43;14.17;;;7.60;97.30;;;;;;4899738;29;20267;-71
2020/12/13 11:47:13;;;;;;;27.80;14.60;;;7.70;97.30;;;;;;4900063;29;20422;-71
2020/12/13 11:49:39;;;;;;;32.10;14.17;;;7.80;97.30;;;;;;4899856;29;20544;-72
2020/12/13 11:52:04;;;;;;;26.90;13.37;;;7.80;97.30;;;;;;4899717;29;20810;-71
2020/12/13 11:54:30;;;;;;;28.63;13.10;;;7.90;97.30;;;;;;4899391;29;20426;-71
2020/12/13 11:56:57;;;;;;;27.50;14.90;;;7.90;97.30;;;;;;4899785;29;20185;-71
2020/12/13 11:59:23;;;;;;;29.70;15.30;;;7.90;97.30;;;;;;4899742;29;20260;-71
2020/12/13 12:01:49;;;;;;;28.73;13.53;;;7.90;97.30;;;;;;4899535;29;20465;-71
2020/12/13 12:04:15;;;;;;;26.33;13.17;;;7.90;97.30;;;;;;4898085;29;20782;-71
2020/12/13 12:06:45;;;;;;;27.00;13.10;;;7.90;97.30;;;;;;4896497;29;20197;-71
2020/12/13 12:09:11;;;;;;;33.90;13.63;;;7.90;97.30;;;;;;4891256;29;20220;-71
2020/12/13 12:11:36;;;;;;;25.37;13.20;;;7.90;97.30;;;;;;4899419;29;20447;-72
2020/12/13 12:14:02;;;;;;;26.80;13.03;;;7.90;97.30;;;;;;4899247;29;20440;-71
2020/12/13 12:16:29;;;;;;;26.47;13.67;;;7.90;97.30;;;;;;4900770;29;20205;-71
2020/12/13 12:18:55;;;;;;;24.97;13.13;;;8.00;97.30;;;;;;4900604;29;20177;-71
2020/12/13 12:21:24;;;;;;;28.07;13.37;;;8.00;97.30;;;;;;4900478;29;20462;-71
2020/12/13 12:23:50;;;;;;;31.13;14.77;;;8.00;97.30;;;;;;4900471;29;20904;-71
2020/12/13 12:26:16;;;;;;;25.63;12.77;;;8.00;97.30;;;;;;4899423;29;20927;-71
2020/12/13 12:28:42;;;;;;;23.90;12.30;;;8.00;97.30;;;;;;4899203;29;20545;-71
2020/12/13 12:31:08;;;;;;;24.63;12.40;;;8.00;97.30;;;;;;4900446;29;20532;-71
2020/12/13 12:33:34;;;;;;;23.40;12.87;;;8.00;97.30;;;;;;4896495;29;20191;-71
2020/12/13 12:36:00;;;;;;;32.50;14.70;;;7.90;97.30;;;;;;4898747;29;20831;-71
2020/12/13 12:38:26;;;;;;;24.73;12.60;;;7.90;97.30;;;;;;4898372;29;20429;-71
2020/12/13 12:40:52;;;;;;;27.27;14.40;;;7.90;97.30;;;;;;4898553;29;20818;-71
2020/12/13 12:43:17;;;;;;;26.47;13.10;;;7.90;97.30;;;;;;4898290;29;20244;-71
2020/12/13 12:45:43;;;;;;;27.63;13.63;;;7.90;97.30;;;;;;4898935;29;20722;-71
2020/12/13 12:48:09;;;;;;;29.00;13.50;;;7.90;97.30;;;;;;4898072;29;20217;-71
2020/12/13 12:50:36;;;;;;;25.30;13.03;;;7.90;97.30;;;;;;4897866;29;20205;-71
2020/12/13 12:53:03;;;;;;;33.27;12.67;;;7.90;97.30;;;;;;4898614;29;20678;-72
2020/12/13 12:55:30;;;;;;;30.33;13.03;;;7.80;97.30;;;;;;4897495;29;20418;-71
2020/12/13 12:57:58;;;;;;;25.63;12.00;;;7.80;97.30;;;;;;4898852;29;20432;-71
2020/12/13 13:00:40;;;;;;;26.23;12.00;;;7.80;97.30;;;;;;4909024;29;20429;-71
2020/12/13 13:03:06;;;;;;;31.20;13.60;;;7.80;97.30;;;;;;4907037;29;20441;-70
2020/12/13 13:06:22;;;;;;;28.30;13.33;;;7.80;97.30;;;;;;4904079;29;20486;-70
2020/12/13 13:08:27;;;;;;;30.00;13.83;;;7.80;97.30;;;;;;4893149;29;20465;-71
2020/12/13 13:11:01;;;;;;;33.27;14.07;;;7.80;97.30;;;;;;4898002;29;20460;-71
2020/12/13 13:13:28;;;;;;;30.73;14.30;;;7.80;97.30;;;;;;4897509;29;20414;-71
2020/12/13 13:15:58;;;;;;;32.10;13.93;;;7.80;97.30;;;;;;4897525;29;20429;-71
2020/12/13 13:18:28;;;;;;;28.40;13.57;;;7.70;97.30;;;;;;4898712;29;20436;-71
2020/12/13 13:20:56;;;;;;;39.90;16.40;;;7.70;97.30;;;;;;4898571;29;20532;-71
2020/12/13 13:23:24;;;;;;;37.77;18.47;;;7.80;97.30;;;;;;4897349;29;20429;-71
2020/12/13 13:26:01;;;;;;;37.17;16.87;;;7.80;97.30;;;;;;4897498;29;20422;-72
2020/12/13 13:28:27;;;;;;;30.77;15.37;;;7.80;97.30;;;;;;4897967;29;20465;-71
2020/12/13 13:30:53;;;;;;;30.77;14.77;;;7.80;97.30;;;;;;4898885;29;20540;-71
2020/12/13 13:33:18;;;;;;;27.10;14.10;;;7.80;97.30;;;;;;4898747;29;20193;-71
2020/12/13 13:35:44;;;;;;;27.53;13.40;;;7.70;97.30;;;;;;4897301;29;20196;-71
2020/12/13 13:38:10;;;;;;;24.37;12.80;;;7.70;97.30;;;;;;4897426;29;20185;-71
2020/12/13 13:40:35;;;;;;;30.90;15.07;;;7.70;97.30;;;;;;4897343;29;20201;-71
2020/12/13 13:43:05;;;;;;;28.07;12.77;;;7.70;97.30;;;;;;4898350;29;20186;-71
2020/12/13 13:51:02;;;;;;;25.03;12.60;;;7.80;97.30;;;;;;4898629;29;20462;-71
2020/12/13 13:53:28;;;;;;;28.83;13.10;;;7.80;97.30;;;;;;4898363;29;20425;-71
2020/12/13 13:55:57;;;;;;;29.67;14.13;;;7.80;97.30;;;;;;4898892;29;20426;-71
2020/12/13 13:58:27;;;;;;;29.07;13.20;;;7.80;97.30;;;;;;4897053;29;20644;-71
2020/12/13 14:00:53;;;;;;;32.23;14.70;;;7.90;97.30;;;;;;4896434;29;20464;-71
2020/12/13 14:03:19;;;;;;;25.53;12.40;;;7.90;97.30;;;;;;4897935;29;20947;-71
2020/12/13 14:05:55;;;;;;;27.20;13.70;;;7.90;97.30;;;;;;4896482;29;20187;-71
2020/12/13 14:10:47;;;;;;;27.43;13.80;;;7.80;97.30;;;;;;4898526;29;20497;-71
2020/12/13 14:13:14;;;;;;;24.47;12.40;;;7.80;97.30;;;;;;4898239;29;20177;-71
2020/12/13 14:15:39;;;;;;;26.93;14.37;;;7.80;97.30;;;;;;4897332;29;20429;-71
2020/12/13 14:18:06;;;;;;;28.97;13.00;;;7.80;97.30;;;;;;4897130;29;20919;-71
2020/12/13 14:20:32;;;;;;;24.47;13.07;;;7.80;97.30;;;;;;4897021;29;20651;-71
2020/12/13 14:22:59;;;;;;;28.73;13.60;;;7.80;97.30;;;;;;4897013;29;20471;-71
2020/12/13 14:25:25;;;;;;;29.57;13.13;;;7.80;97.30;;;;;;4896628;29;20441;-71
2020/12/13 14:27:51;;;;;;;26.83;13.30;;;7.80;97.30;;;;;;4897102;29;20429;-71
2020/12/13 14:30:17;;;;;;;27.93;13.53;;;7.80;97.30;;;;;;4897899;29;20915;-71
2020/12/13 14:32:42;;;;;;;31.10;13.00;;;7.80;97.30;;;;;;4896979;29;20421;-71
2020/12/13 14:35:08;;;;;;;24.27;12.50;;;7.80;97.30;;;;;;4897296;29;20181;-71
2020/12/13 14:37:36;;;;;;;25.90;12.70;;;7.80;97.30;;;;;;4897357;29;20444;-71
2020/12/13 14:40:03;;;;;;;25.10;12.60;;;7.80;97.30;;;;;;4898187;29;20180;-71
2020/12/13 14:42:28;;;;;;;26.37;13.20;;;7.70;97.30;;;;;;4898076;29;20513;-70
2020/12/13 14:44:55;;;;;;;27.53;12.93;;;7.70;97.30;;;;;;4897886;29;20509;-71
2020/12/13 14:47:23;;;;;;;30.93;13.90;;;7.70;97.30;;;;;;4897899;29;20260;-71
2020/12/13 14:49:49;;;;;;;25.97;13.50;;;7.70;97.30;;;;;;4896712;29;20465;-71
2020/12/13 14:52:15;;;;;;;31.07;14.10;;;7.60;97.30;;;;;;4896565;29;20450;-70
2020/12/13 14:54:40;;;;;;;30.40;13.97;;;7.70;97.30;;;;;;4896377;29;20656;-70
2020/12/13 14:57:06;;;;;;;25.50;13.30;;;7.60;97.30;;;;;;4897800;29;20189;-70
2020/12/13 14:59:32;;;;;;;29.83;15.00;;;7.60;97.30;;;;;;4896623;29;20543;-71
2020/12/13 15:01:58;;;;;;;28.87;13.73;;;7.60;97.30;;;;;;4896356;29;20227;-71
2020/12/13 15:04:24;;;;;;;24.63;13.03;;;7.60;97.30;;;;;;4896401;29;20192;-71
2020/12/13 15:06:50;;;;;;;34.10;13.80;;;7.60;97.30;;;;;;4897837;29;20179;-71
2020/12/13 15:09:16;;;;;;;31.27;13.77;;;7.60;97.30;;;;;;4896373;29;20468;-71
2020/12/13 15:11:44;;;;;;;25.73;13.07;;;7.60;97.30;;;;;;4897739;29;20204;-71
2020/12/13 15:17:26;;;;;;;25.30;13.40;;;7.60;97.30;;;;;;4897750;29;20443;-71
2020/12/13 15:19:21;;;;;;;31.77;14.43;;;7.60;97.30;;;;;;4892785;29;20197;-70
2020/12/13 15:21:50;;;;;;;23.07;13.10;;;7.60;97.30;;;;;;4901136;29;20525;-71
2020/12/13 15:24:16;;;;;;;27.73;14.07;;;7.60;97.30;;;;;;4899874;29;20665;-70
2020/12/13 15:26:42;;;;;;;29.17;14.27;;;7.60;97.30;;;;;;4901183;29;20425;-72
2020/12/13 15:29:08;;;;;;;30.20;14.30;;;7.60;97.30;;;;;;4898512;29;20290;-72
2020/12/13 15:31:33;;;;;;;29.00;13.77;;;7.60;97.30;;;;;;4901275;29;20201;-72
2020/12/13 15:33:59;;;;;;;28.27;14.60;;;7.50;97.30;;;;;;4900360;29;20585;-71
2020/12/13 15:36:25;;;;;;;30.00;14.03;;;7.60;97.30;;;;;;4900348;29;20205;-72
2020/12/13 15:38:52;;;;;;;31.50;14.57;;;7.60;97.30;;;;;;4901470;29;20184;-72
2020/12/13 15:41:17;;;;;;;32.13;15.57;;;7.60;97.30;;;;;;4899969;29;20457;-72
2020/12/13 15:43:43;;;;;;;33.00;15.73;;;7.60;97.30;;;;;;4901296;29;20935;-72
2020/12/13 15:46:09;;;;;;;31.70;14.27;;;7.60;97.30;;;;;;4900054;29;20278;-72
2020/12/13 15:48:35;;;;;;;31.93;16.07;;;7.60;97.30;;;;;;4899791;29;20209;-73
2020/12/13 15:51:00;;;;;;;29.53;14.70;;;7.50;97.30;;;;;;4900306;29;20261;-71
2020/12/13 15:53:26;;;;;;;30.43;14.40;;;7.50;97.30;;;;;;4899959;29;20185;-72
2020/12/13 15:55:55;;;;;;;35.43;17.50;;;7.50;97.30;;;;;;4900068;29;20181;-71
2020/12/13 15:58:20;;;;;;;32.67;15.77;;;7.50;97.30;;;;;;4901244;29;20851;-72
2020/12/13 16:00:47;;;;;;;36.80;18.43;;;7.50;97.30;;;;;;4899568;29;20908;-73
2020/12/13 16:03:13;;;;;;;23.97;13.40;;;7.50;97.30;;;;;;4899909;29;20185;-72
2020/12/13 16:05:39;;;;;;;27.33;13.50;;;7.50;97.30;;;;;;4899794;29;20433;-72
2020/12/13 16:08:06;;;;;;;28.63;14.43;;;7.50;97.30;;;;;;4901067;29;20534;-72
2020/12/13 16:10:32;;;;;;;28.43;14.87;;;7.50;97.30;;;;;;4899564;29;20994;-72
2020/12/13 16:13:02;;;;;;;28.50;14.83;;;7.50;97.30;;;;;;4901206;29;20409;-72
2020/12/13 16:15:29;;;;;;;39.83;14.27;;;7.50;97.30;;;;;;4901046;29;20413;-73
2020/12/13 16:17:54;;;;;;;29.07;14.50;;;7.60;97.30;;;;;;4901396;29;20904;-72
2020/12/13 16:20:20;;;;;;;32.70;16.57;;;7.50;97.30;;;;;;4899615;29;20425;-72
2020/12/13 16:22:46;;;;;;;31.43;17.00;;;7.50;97.30;;;;;;4899685;29;20192;-72
2020/12/13 16:25:12;;;;;;;34.87;15.50;;;7.50;97.30;;;;;;4899303;29;20185;-72
2020/12/13 16:27:41;;;;;;;31.27;14.67;;;7.50;97.30;;;;;;4898774;29;20773;-72
2020/12/13 16:30:07;;;;;;;33.60;15.73;;;7.50;97.30;;;;;;4898673;29;20418;-72
2020/12/13 16:32:32;;;;;;;36.30;18.00;;;7.50;97.30;;;;;;4899273;29;20521;-72
2020/12/13 16:34:58;;;;;;;31.57;16.90;;;7.50;97.30;;;;;;4899031;29;20568;-72
2020/12/13 16:37:24;;;;;;;32.17;15.40;;;7.50;97.30;;;;;;4899183;29;20237;-72
2020/12/13 16:39:50;;;;;;;39.43;17.83;;;7.50;97.30;;;;;;4900506;29;20173;-73
2020/12/13 16:43:11;;;;;;;35.00;16.63;;;7.50;97.30;;;;;;4900008;29;20190;-73
2020/12/13 16:45:05;;;;;;;33.70;15.83;;;7.50;97.30;;;;;;4899852;29;20791;-73
2020/12/13 16:47:35;;;;;;;40.67;18.10;;;7.40;97.30;;;;;;4898937;29;20425;-73
2020/12/13 16:55:23;;;;;;;34.27;16.30;;;7.40;97.30;;;;;;4899932;29;20405;-73
2020/12/13 16:57:48;;;;;;;30.20;14.97;;;7.40;97.30;;;;;;4898688;29;20467;-73
2020/12/13 17:00:14;;;;;;;33.73;16.03;;;7.40;97.30;;;;;;4900045;29;20181;-73
2020/12/13 17:02:41;;;;;;;26.43;13.00;;;7.40;97.30;;;;;;4898810;29;20201;-73
2020/12/13 17:05:07;;;;;;;32.13;15.80;;;7.40;97.30;;;;;;4898745;29;20185;-73
2020/12/13 17:07:34;;;;;;;32.27;15.67;;;7.40;97.30;;;;;;4899946;29;20417;-73
2020/12/13 17:10:05;;;;;;;34.50;16.27;;;7.40;97.30;;;;;;4900115;29;20236;-73
2020/12/13 17:12:31;;;;;;;31.73;14.90;;;7.40;97.30;;;;;;4899901;29;20438;-73
2020/12/13 17:14:57;;;;;;;33.93;15.33;;;7.40;97.30;;;;;;4898950;29;20424;-73
2020/12/13 17:17:23;;;;;;;31.83;15.43;;;7.40;97.30;;;;;;4898549;29;20691;-74
2020/12/13 17:19:49;;;;;;;30.23;13.60;;;7.40;97.30;;;;;;4898619;29;20425;-73
2020/12/13 17:22:14;;;;;;;37.63;16.10;;;7.40;97.30;;;;;;4899824;29;20209;-73
2020/12/13 17:24:40;;;;;;;38.17;16.23;;;7.40;97.30;;;;;;4899694;29;20199;-73
2020/12/13 17:27:06;;;;;;;32.90;15.40;;;7.40;97.30;;;;;;4899742;29;20237;-73
2020/12/13 17:29:31;;;;;;;29.87;15.47;;;7.40;97.30;;;;;;4898403;29;20465;-72
2020/12/13 17:31:58;;;;;;;35.30;15.40;;;7.40;97.30;;;;;;4898374;29;20909;-72
2020/12/13 17:34:24;;;;;;;34.60;16.90;;;7.40;97.30;;;;;;4898176;29;20241;-72
2020/12/13 17:36:50;;;;;;;37.13;15.50;;;7.40;97.30;;;;;;4898479;29;20413;-73
2020/12/13 17:39:15;;;;;;;33.23;15.80;;;7.40;97.30;;;;;;4898598;29;20279;-73
2020/12/13 17:41:44;;;;;;;32.03;15.73;;;7.40;97.30;;;;;;4897126;29;20671;-73
2020/12/13 17:44:14;;;;;;;27.77;14.43;;;7.40;97.30;;;;;;4899232;29;20193;-72
2020/12/13 17:46:40;;;;;;;30.17;14.33;;;7.40;97.30;;;;;;4898154;29;20962;-72
2020/12/13 17:49:09;;;;;;;30.93;14.87;;;7.40;97.30;;;;;;4897615;29;20472;-73
2020/12/13 17:54:11;;;;;;;31.80;15.57;;;7.40;97.30;;;;;;4899397;29;21014;-72
2020/12/13 17:56:44;;;;;;;32.13;15.00;;;7.40;97.30;;;;;;4897969;29;20418;-72
2020/12/13 17:59:20;;;;;;;33.10;14.80;;;7.40;97.30;;;;;;4897871;29;20528;-72
2020/12/13 18:01:46;;;;;;;32.07;15.87;;;7.40;97.30;;;;;;4897622;29;20722;-72
2020/12/13 18:04:12;;;;;;;37.27;16.37;;;7.40;97.30;;;;;;4897789;29;20950;-73
2020/12/13 18:06:37;;;;;;;34.43;16.40;;;7.50;97.30;;;;;;4897697;29;20422;-72
2020/12/13 18:09:04;;;;;;;29.40;14.53;;;7.50;97.30;;;;;;4897396;29;20255;-72
2020/12/13 18:11:30;;;;;;;38.80;16.23;;;7.50;97.30;;;;;;4897367;29;20627;-73
2020/12/13 18:13:55;;;;;;;35.13;17.00;;;7.50;97.30;;;;;;4897147;29;20460;-73
2020/12/13 18:16:21;;;;;;;37.53;18.37;;;7.40;97.30;;;;;;4899049;29;20183;-73
2020/12/13 18:18:47;;;;;;;43.70;18.00;;;7.40;97.30;;;;;;4897346;29;20253;-74
2020/12/13 18:21:19;;;;;;;51.33;24.30;;;7.40;97.30;;;;;;4899574;29;20256;-73
2020/12/13 18:23:44;;;;;;;37.57;18.07;;;7.40;97.30;;;;;;4898531;29;20500;-73
2020/12/13 18:26:11;;;;;;;32.50;16.80;;;7.40;97.30;;;;;;4897500;29;20517;-72
2020/12/13 18:28:37;;;;;;;38.27;17.80;;;7.40;97.30;;;;;;4897134;29;20220;-73
2020/12/13 18:31:03;;;;;;;38.30;17.30;;;7.40;97.30;;;;;;4897334;29;20446;-73
2020/12/13 18:33:29;;;;;;;32.77;16.03;;;7.40;97.30;;;;;;4897119;29;20186;-73
2020/12/13 18:35:58;;;;;;;33.00;14.93;;;7.40;97.30;;;;;;4898950;29;20181;-73
2020/12/13 18:38:23;;;;;;;33.20;15.50;;;7.40;97.30;;;;;;4897072;29;20433;-72
2020/12/13 18:40:50;;;;;;;36.27;16.60;;;7.30;97.30;;;;;;4898300;29;20452;-73
2020/12/13 18:43:15;;;;;;;35.77;17.40;;;7.30;97.30;;;;;;4897019;29;20832;-73
2020/12/13 18:45:41;;;;;;;48.77;20.17;;;7.30;97.30;;;;;;4897097;29;20428;-72
2020/12/13 18:48:07;;;;;;;44.10;19.27;;;7.20;97.30;;;;;;4897924;29;20204;-73
2020/12/13 18:50:44;;;;;;;37.43;19.53;;;7.20;97.30;;;;;;4898068;29;20180;-72
2020/12/13 18:53:14;;;;;;;42.30;19.47;;;7.20;97.30;;;;;;4896557;29;20256;-72
2020/12/13 18:55:40;;;;;;;38.27;19.37;;;7.20;97.30;;;;;;4898199;29;20421;-73
2020/12/13 18:58:06;;;;;;;39.93;20.33;;;7.20;97.30;;;;;;4896710;29;20453;-72
2020/12/13 19:00:32;;;;;;;34.43;17.20;;;7.20;97.30;;;;;;4898231;29;20424;-72